Santa Rosa, New Mexico
Current Conditions -  °F | °C
As of 6:53 PM on Saturday 20 Dec 2014 (Local Time) from KLVS Reporting Station
Clear Clear  
Wind Chill: 23°   Ceiling: Unl
Heat Index: 32°   Visibility: 10mi
Dew Point: 12°   Wind: 12mph
Humidity: 44%   Direction: 160°SSE
Pressure: 30.01"   Gusts: NA
Location:  34.94°N, 104.68°W
Report Text: KLVS 210153Z AUTO 16010KT 10SM CLR 00/M11 A3001 RMK AO2 SLP167 T00001111
Loading
Personal Weather Stations






























Interactive Weather Map New forecast layout! Learn more

10-Day Weather Forecast

Advertisements
Track Severe Weather on mobile